sensor_id;sensor_type;location;lat;lon;timestamp;P1;durP1;ratioP1;P2;durP2;ratioP2
934;SDS011;454;53.254;10.400;2023-02-28T05:01:05;0.80;;;0.80;;
934;SDS011;454;53.254;10.400;2023-02-28T05:03:41;0.75;;;0.75;;
934;SDS011;454;53.254;10.400;2023-02-28T05:06:08;1.58;;;1.58;;
934;SDS011;454;53.254;10.400;2023-02-28T05:08:36;1.30;;;1.30;;
934;SDS011;454;53.254;10.400;2023-02-28T05:11:03;0.60;;;0.60;;
934;SDS011;454;53.254;10.400;2023-02-28T05:13:32;1.08;;;0.90;;
934;SDS011;454;53.254;10.400;2023-02-28T05:16:00;4.88;;;2.30;;
934;SDS011;454;53.254;10.400;2023-02-28T05:18:28;4.80;;;1.38;;
934;SDS011;454;53.254;10.400;2023-02-28T05:20:54;5.25;;;3.10;;
934;SDS011;454;53.254;10.400;2023-02-28T05:23:22;0.70;;;0.70;;
934;SDS011;454;53.254;10.400;2023-02-28T05:25:49;1.67;;;0.57;;
934;SDS011;454;53.254;10.400;2023-02-28T05:28:17;0.95;;;0.95;;
934;SDS011;454;53.254;10.400;2023-02-28T05:30:44;1.00;;;1.00;;
934;SDS011;454;53.254;10.400;2023-02-28T05:33:12;5.18;;;3.08;;
934;SDS011;454;53.254;10.400;2023-02-28T05:35:40;2.25;;;2.17;;
934;SDS011;454;53.254;10.400;2023-02-28T05:38:07;1.38;;;1.30;;
934;SDS011;454;53.254;10.400;2023-02-28T05:40:34;1.00;;;1.00;;
934;SDS011;454;53.254;10.400;2023-02-28T05:43:01;1.60;;;1.60;;
934;SDS011;454;53.254;10.400;2023-02-28T05:45:28;0.57;;;0.57;;
934;SDS011;454;53.254;10.400;2023-02-28T05:47:55;1.00;;;1.00;;
934;SDS011;454;53.254;10.400;2023-02-28T05:50:22;1.10;;;0.40;;
934;SDS011;454;53.254;10.400;2023-02-28T05:52:50;1.30;;;1.30;;
934;SDS011;454;53.254;10.400;2023-02-28T05:55:18;1.20;;;1.20;;
934;SDS011;454;53.254;10.400;2023-02-28T05:57:45;0.68;;;0.68;;
934;SDS011;454;53.254;10.400;2023-02-28T06:00:12;2.05;;;1.95;;
934;SDS011;454;53.254;10.400;2023-02-28T06:06:02;1.27;;;1.23;;
934;SDS011;454;53.254;10.400;2023-02-28T06:08:31;2.70;;;1.73;;
934;SDS011;454;53.254;10.400;2023-02-28T06:10:57;0.95;;;0.95;;
934;SDS011;454;53.254;10.400;2023-02-28T06:13:28;0.85;;;0.85;;
934;SDS011;454;53.254;10.400;2023-02-28T06:15:55;3.40;;;2.05;;
934;SDS011;454;53.254;10.400;2023-02-28T06:18:22;2.50;;;2.30;;
934;SDS011;454;53.254;10.400;2023-02-28T06:20:52;2.15;;;2.05;;
934;SDS011;454;53.254;10.400;2023-02-28T06:23:19;2.97;;;2.92;;
934;SDS011;454;53.254;10.400;2023-02-28T06:25:48;0.40;;;0.40;;
934;SDS011;454;53.254;10.400;2023-02-28T06:28:14;4.03;;;2.90;;
934;SDS011;454;53.254;10.400;2023-02-28T06:30:42;1.45;;;1.40;;
934;SDS011;454;53.254;10.400;2023-02-28T06:33:08;2.03;;;2.03;;
934;SDS011;454;53.254;10.400;2023-02-28T06:35:35;1.40;;;1.40;;
934;SDS011;454;53.254;10.400;2023-02-28T06:38:03;2.35;;;2.25;;
934;SDS011;454;53.254;10.400;2023-02-28T06:40:29;6.22;;;2.78;;
934;SDS011;454;53.254;10.400;2023-02-28T06:43:00;7.38;;;1.85;;
934;SDS011;454;53.254;10.400;2023-02-28T06:45:27;0.73;;;0.73;;
934;SDS011;454;53.254;10.400;2023-02-28T06:47:53;1.17;;;1.17;;
934;SDS011;454;53.254;10.400;2023-02-28T06:50:20;1.73;;;1.73;;
934;SDS011;454;53.254;10.400;2023-02-28T06:52:47;2.55;;;2.35;;
934;SDS011;454;53.254;10.400;2023-02-28T06:55:18;2.85;;;2.75;;
934;SDS011;454;53.254;10.400;2023-02-28T06:57:45;4.05;;;3.63;;
934;SDS011;454;53.254;10.400;2023-02-28T07:00:14;2.20;;;2.10;;
934;SDS011;454;53.254;10.400;2023-02-28T07:02:41;4.32;;;2.35;;
934;SDS011;454;53.254;10.400;2023-02-28T07:05:08;1.80;;;1.70;;
934;SDS011;454;53.254;10.400;2023-02-28T07:07:35;0.40;;;0.40;;
934;SDS011;454;53.254;10.400;2023-02-28T07:10:03;1.00;;;1.00;;
934;SDS011;454;53.254;10.400;2023-02-28T07:12:31;5.72;;;3.03;;
934;SDS011;454;53.254;10.400;2023-02-28T07:14:57;5.53;;;3.75;;
934;SDS011;454;53.254;10.400;2023-02-28T07:17:25;0.50;;;0.50;;
934;SDS011;454;53.254;10.400;2023-02-28T07:19:52;3.92;;;2.40;;
934;SDS011;454;53.254;10.400;2023-02-28T07:22:19;1.52;;;1.52;;
934;SDS011;454;53.254;10.400;2023-02-28T07:24:46;2.30;;;1.63;;
934;SDS011;454;53.254;10.400;2023-02-28T07:27:12;2.35;;;2.25;;
934;SDS011;454;53.254;10.400;2023-02-28T07:29:50;1.30;;;1.20;;
934;SDS011;454;53.254;10.400;2023-02-28T07:32:18;3.25;;;3.05;;
934;SDS011;454;53.254;10.400;2023-02-28T07:34:46;2.25;;;2.15;;
934;SDS011;454;53.254;10.400;2023-02-28T07:37:13;2.05;;;1.98;;
934;SDS011;454;53.254;10.400;2023-02-28T07:39:40;1.10;;;1.10;;
934;SDS011;454;53.254;10.400;2023-02-28T07:42:08;1.80;;;1.80;;
934;SDS011;454;53.254;10.400;2023-02-28T07:44:36;2.30;;;2.13;;
934;SDS011;454;53.254;10.400;2023-02-28T07:47:05;2.55;;;1.02;;
934;SDS011;454;53.254;10.400;2023-02-28T07:49:33;2.13;;;2.13;;
934;SDS011;454;53.254;10.400;2023-02-28T07:52:01;2.95;;;2.83;;
934;SDS011;454;53.254;10.400;2023-02-28T07:54:28;2.90;;;2.80;;
934;SDS011;454;53.254;10.400;2023-02-28T07:56:55;1.45;;;1.45;;
934;SDS011;454;53.254;10.400;2023-02-28T07:59:22;5.70;;;3.08;;
934;SDS011;454;53.254;10.400;2023-02-28T08:01:49;1.30;;;1.15;;
934;SDS011;454;53.254;10.400;2023-02-28T08:04:16;1.40;;;1.40;;
934;SDS011;454;53.254;10.400;2023-02-28T08:06:43;0.65;;;0.65;;
934;SDS011;454;53.254;10.400;2023-02-28T08:09:11;1.40;;;1.30;;
934;SDS011;454;53.254;10.400;2023-02-28T08:11:38;5.60;;;1.55;;
934;SDS011;454;53.254;10.400;2023-02-28T08:14:04;0.82;;;0.82;;
934;SDS011;454;53.254;10.400;2023-02-28T08:16:31;1.02;;;1.00;;
934;SDS011;454;53.254;10.400;2023-02-28T08:18:58;2.45;;;2.45;;
934;SDS011;454;53.254;10.400;2023-02-28T08:21:25;1.77;;;1.75;;
934;SDS011;454;53.254;10.400;2023-02-28T08:23:51;1.10;;;1.10;;
934;SDS011;454;53.254;10.400;2023-02-28T08:26:20;1.77;;;1.67;;
934;SDS011;454;53.254;10.400;2023-02-28T08:28:46;2.83;;;1.92;;
934;SDS011;454;53.254;10.400;2023-02-28T08:31:14;0.68;;;0.68;;
934;SDS011;454;53.254;10.400;2023-02-28T08:33:42;1.45;;;1.45;;
934;SDS011;454;53.254;10.400;2023-02-28T08:36:09;1.27;;;1.27;;
934;SDS011;454;53.254;10.400;2023-02-28T08:38:37;1.73;;;1.67;;
934;SDS011;454;53.254;10.400;2023-02-28T08:41:05;1.52;;;1.42;;
934;SDS011;454;53.254;10.400;2023-02-28T08:43:35;1.27;;;1.27;;
934;SDS011;454;53.254;10.400;2023-02-28T08:46:02;0.75;;;0.75;;
934;SDS011;454;53.254;10.400;2023-02-28T08:48:30;0.90;;;0.85;;
934;SDS011;454;53.254;10.400;2023-02-28T08:50:57;3.92;;;2.55;;
934;SDS011;454;53.254;10.400;2023-02-28T08:53:25;1.30;;;1.30;;
934;SDS011;454;53.254;10.400;2023-02-28T08:55:56;1.35;;;1.35;;
934;SDS011;454;53.254;10.400;2023-02-28T08:58:24;3.83;;;3.53;;
934;SDS011;454;53.254;10.400;2023-02-28T09:00:52;0.43;;;0.43;;
934;SDS011;454;53.254;10.400;2023-02-28T09:03:20;1.55;;;1.08;;
934;SDS011;454;53.254;10.400;2023-02-28T09:05:57;3.75;;;3.45;;
934;SDS011;454;53.254;10.400;2023-02-28T09:08:26;4.20;;;0.82;;
934;SDS011;454;53.254;10.400;2023-02-28T09:10:53;1.40;;;1.40;;
934;SDS011;454;53.254;10.400;2023-02-28T09:13:22;2.50;;;2.30;;
934;SDS011;454;53.254;10.400;2023-02-28T09:15:50;2.88;;;1.45;;
934;SDS011;454;53.254;10.400;2023-02-28T09:18:18;1.40;;;0.95;;
934;SDS011;454;53.254;10.400;2023-02-28T09:20:45;2.83;;;1.08;;
934;SDS011;454;53.254;10.400;2023-02-28T09:23:12;2.57;;;2.37;;
934;SDS011;454;53.254;10.400;2023-02-28T09:25:44;0.82;;;0.82;;
934;SDS011;454;53.254;10.400;2023-02-28T09:28:12;1.52;;;1.52;;
934;SDS011;454;53.254;10.400;2023-02-28T09:30:40;4.20;;;2.47;;
934;SDS011;454;53.254;10.400;2023-02-28T09:33:07;1.67;;;1.58;;
934;SDS011;454;53.254;10.400;2023-02-28T09:35:35;4.75;;;2.25;;
934;SDS011;454;53.254;10.400;2023-02-28T09:38:03;3.55;;;2.33;;
934;SDS011;454;53.254;10.400;2023-02-28T09:40:30;1.25;;;1.25;;
934;SDS011;454;53.254;10.400;2023-02-28T09:42:57;1.63;;;1.60;;
934;SDS011;454;53.254;10.400;2023-02-28T09:45:26;1.42;;;1.42;;
934;SDS011;454;53.254;10.400;2023-02-28T09:47:58;1.38;;;1.00;;
934;SDS011;454;53.254;10.400;2023-02-28T09:50:29;2.25;;;2.15;;
934;SDS011;454;53.254;10.400;2023-02-28T09:53:03;1.52;;;1.52;;
934;SDS011;454;53.254;10.400;2023-02-28T09:55:37;1.50;;;1.50;;
934;SDS011;454;53.254;10.400;2023-02-28T09:58:08;0.80;;;0.73;;
934;SDS011;454;53.254;10.400;2023-02-28T10:00:46;1.08;;;1.08;;
934;SDS011;454;53.254;10.400;2023-02-28T10:03:25;0.60;;;0.60;;
934;SDS011;454;53.254;10.400;2023-02-28T10:05:58;0.57;;;0.57;;
934;SDS011;454;53.254;10.400;2023-02-28T10:08:32;0.38;;;0.38;;
934;SDS011;454;53.254;10.400;2023-02-28T10:11:07;0.20;;;0.20;;
934;SDS011;454;53.254;10.400;2023-02-28T10:13:37;0.50;;;0.50;;
934;SDS011;454;53.254;10.400;2023-02-28T10:16:15;0.30;;;0.30;;
934;SDS011;454;53.254;10.400;2023-02-28T10:18:46;0.32;;;0.32;;
934;SDS011;454;53.254;10.400;2023-02-28T10:21:18;0.80;;;0.80;;
934;SDS011;454;53.254;10.400;2023-02-28T10:23:50;1.23;;;1.20;;
934;SDS011;454;53.254;10.400;2023-02-28T10:26:22;0.40;;;0.40;;
934;SDS011;454;53.254;10.400;2023-02-28T10:28:54;5.70;;;0.75;;
934;SDS011;454;53.254;10.400;2023-02-28T10:31:21;0.20;;;0.20;;
934;SDS011;454;53.254;10.400;2023-02-28T10:33:48;0.10;;;0.10;;
934;SDS011;454;53.254;10.400;2023-02-28T10:36:16;0.75;;;0.75;;
934;SDS011;454;53.254;10.400;2023-02-28T10:38:44;2.13;;;0.90;;
934;SDS011;454;53.254;10.400;2023-02-28T10:41:14;1.70;;;1.70;;
934;SDS011;454;53.254;10.400;2023-02-28T10:43:42;0.90;;;0.82;;
934;SDS011;454;53.254;10.400;2023-02-28T10:46:14;0.35;;;0.35;;
934;SDS011;454;53.254;10.400;2023-02-28T10:48:57;1.48;;;1.48;;
934;SDS011;454;53.254;10.400;2023-02-28T10:51:27;0.20;;;0.20;;
934;SDS011;454;53.254;10.400;2023-02-28T10:54:02;0.63;;;0.40;;
934;SDS011;454;53.254;10.400;2023-02-28T10:56:31;1.27;;;1.27;;
934;SDS011;454;53.254;10.400;2023-02-28T10:58:59;1.02;;;1.02;;
934;SDS011;454;53.254;10.400;2023-02-28T11:01:34;0.73;;;0.60;;
934;SDS011;454;53.254;10.400;2023-02-28T11:04:02;1.30;;;0.88;;
934;SDS011;454;53.254;10.400;2023-02-28T11:06:30;1.73;;;1.63;;
934;SDS011;454;53.254;10.400;2023-02-28T11:08:58;0.52;;;0.52;;
934;SDS011;454;53.254;10.400;2023-02-28T11:11:28;0.52;;;0.52;;
934;SDS011;454;53.254;10.400;2023-02-28T11:14:14;2.58;;;2.58;;
934;SDS011;454;53.254;10.400;2023-02-28T11:16:45;0.98;;;0.88;;
934;SDS011;454;53.254;10.400;2023-02-28T11:19:16;0.85;;;0.85;;
934;SDS011;454;53.254;10.400;2023-02-28T11:21:48;0.68;;;0.68;;
934;SDS011;454;53.254;10.400;2023-02-28T11:24:21;0.80;;;0.80;;
934;SDS011;454;53.254;10.400;2023-02-28T11:26:52;0.85;;;0.47;;
934;SDS011;454;53.254;10.400;2023-02-28T11:29:20;0.82;;;0.60;;
934;SDS011;454;53.254;10.400;2023-02-28T11:32:02;0.65;;;0.60;;
934;SDS011;454;53.254;10.400;2023-02-28T11:34:41;0.20;;;0.20;;
934;SDS011;454;53.254;10.400;2023-02-28T11:37:13;0.63;;;0.55;;
934;SDS011;454;53.254;10.400;2023-02-28T11:39:41;0.17;;;0.17;;
934;SDS011;454;53.254;10.400;2023-02-28T11:42:16;0.40;;;0.40;;
934;SDS011;454;53.254;10.400;2023-02-28T11:45:00;1.00;;;1.00;;
934;SDS011;454;53.254;10.400;2023-02-28T11:47:38;0.40;;;0.40;;
934;SDS011;454;53.254;10.400;2023-02-28T11:50:16;0.10;;;0.10;;
934;SDS011;454;53.254;10.400;2023-02-28T11:53:05;0.20;;;0.20;;
934;SDS011;454;53.254;10.400;2023-02-28T11:55:44;0.80;;;0.80;;
934;SDS011;454;53.254;10.400;2023-02-28T11:58:20;0.20;;;0.20;;
934;SDS011;454;53.254;10.400;2023-02-28T12:01:09;0.38;;;0.38;;
934;SDS011;454;53.254;10.400;2023-02-28T12:03:50;5.28;;;0.95;;
934;SDS011;454;53.254;10.400;2023-02-28T12:06:31;0.10;;;0.10;;
934;SDS011;454;53.254;10.400;2023-02-28T12:09:04;0.82;;;0.82;;
934;SDS011;454;53.254;10.400;2023-02-28T12:11:41;0.45;;;0.45;;
934;SDS011;454;53.254;10.400;2023-02-28T12:14:22;0.20;;;0.20;;
934;SDS011;454;53.254;10.400;2023-02-28T12:16:59;1.85;;;0.75;;
934;SDS011;454;53.254;10.400;2023-02-28T12:19:39;0.30;;;0.30;;
934;SDS011;454;53.254;10.400;2023-02-28T12:22:28;0.30;;;0.30;;
934;SDS011;454;53.254;10.400;2023-02-28T12:25:08;1.70;;;0.65;;
934;SDS011;454;53.254;10.400;2023-02-28T12:28:06;0.63;;;0.63;;
934;SDS011;454;53.254;10.400;2023-02-28T12:30:48;0.45;;;0.45;;
934;SDS011;454;53.254;10.400;2023-02-28T12:33:18;0.30;;;0.30;;
934;SDS011;454;53.254;10.400;2023-02-28T12:35:48;0.40;;;0.40;;
934;SDS011;454;53.254;10.400;2023-02-28T12:38:21;0.30;;;0.30;;
934;SDS011;454;53.254;10.400;2023-02-28T12:40:53;1.50;;;0.45;;
934;SDS011;454;53.254;10.400;2023-02-28T12:43:25;0.63;;;0.63;;
934;SDS011;454;53.254;10.400;2023-02-28T12:46:00;1.95;;;1.95;;
934;SDS011;454;53.254;10.400;2023-02-28T12:48:35;1.27;;;1.27;;
934;SDS011;454;53.254;10.400;2023-02-28T12:51:06;0.65;;;0.65;;
934;SDS011;454;53.254;10.400;2023-02-28T12:53:35;0.60;;;0.60;;
934;SDS011;454;53.254;10.400;2023-02-28T12:56:13;0.25;;;0.25;;
934;SDS011;454;53.254;10.400;2023-02-28T12:58:47;2.58;;;0.85;;
934;SDS011;454;53.254;10.400;2023-02-28T13:01:26;0.43;;;0.43;;
934;SDS011;454;53.254;10.400;2023-02-28T13:04:27;0.90;;;0.40;;
934;SDS011;454;53.254;10.400;2023-02-28T13:07:08;1.10;;;1.00;;
934;SDS011;454;53.254;10.400;2023-02-28T13:09:51;0.85;;;0.85;;
934;SDS011;454;53.254;10.400;2023-02-28T13:12:18;1.88;;;0.90;;
934;SDS011;454;53.254;10.400;2023-02-28T13:14:47;0.68;;;0.45;;
934;SDS011;454;53.254;10.400;2023-02-28T13:17:18;4.40;;;0.60;;
934;SDS011;454;53.254;10.400;2023-02-28T13:19:55;5.28;;;1.10;;
934;SDS011;454;53.254;10.400;2023-02-28T13:22:38;0.50;;;0.50;;
934;SDS011;454;53.254;10.400;2023-02-28T13:31:31;0.40;;;0.40;;
934;SDS011;454;53.254;10.400;2023-02-28T13:36:42;1.00;;;0.40;;
934;SDS011;454;53.254;10.400;2023-02-28T13:42:22;0.52;;;0.52;;
934;SDS011;454;53.254;10.400;2023-02-28T13:47:52;0.40;;;0.40;;
934;SDS011;454;53.254;10.400;2023-02-28T13:50:30;2.80;;;0.88;;
934;SDS011;454;53.254;10.400;2023-02-28T13:56:07;1.00;;;0.80;;
934;SDS011;454;53.254;10.400;2023-02-28T13:58:48;0.63;;;0.63;;
934;SDS011;454;53.254;10.400;2023-02-28T14:01:31;0.47;;;0.47;;
934;SDS011;454;53.254;10.400;2023-02-28T14:04:14;0.50;;;0.50;;
934;SDS011;454;53.254;10.400;2023-02-28T14:07:05;0.63;;;0.63;;
934;SDS011;454;53.254;10.400;2023-02-28T14:09:33;0.47;;;0.47;;
934;SDS011;454;53.254;10.400;2023-02-28T14:18:06;0.52;;;0.52;;
934;SDS011;454;53.254;10.400;2023-02-28T14:20:43;0.55;;;0.55;;
934;SDS011;454;53.254;10.400;2023-02-28T14:23:15;1.02;;;1.02;;
934;SDS011;454;53.254;10.400;2023-02-28T14:25:53;0.50;;;0.50;;
934;SDS011;454;53.254;10.400;2023-02-28T14:28:28;3.65;;;1.55;;
934;SDS011;454;53.254;10.400;2023-02-28T14:31:10;3.42;;;0.73;;
934;SDS011;454;53.254;10.400;2023-02-28T14:33:43;0.40;;;0.40;;
934;SDS011;454;53.254;10.400;2023-02-28T14:36:24;0.93;;;0.60;;
934;SDS011;454;53.254;10.400;2023-02-28T14:38:55;0.80;;;0.80;;
934;SDS011;454;53.254;10.400;2023-02-28T14:41:28;0.20;;;0.20;;
934;SDS011;454;53.254;10.400;2023-02-28T14:44:00;0.30;;;0.30;;
934;SDS011;454;53.254;10.400;2023-02-28T14:46:30;4.78;;;0.60;;
934;SDS011;454;53.254;10.400;2023-02-28T14:49:02;0.45;;;0.45;;
934;SDS011;454;53.254;10.400;2023-02-28T14:51:30;0.30;;;0.30;;
934;SDS011;454;53.254;10.400;2023-02-28T14:54:00;0.50;;;0.50;;
934;SDS011;454;53.254;10.400;2023-02-28T14:56:29;0.40;;;0.40;;
934;SDS011;454;53.254;10.400;2023-02-28T14:59:00;0.55;;;0.30;;
934;SDS011;454;53.254;10.400;2023-02-28T15:01:27;0.82;;;0.68;;
934;SDS011;454;53.254;10.400;2023-02-28T15:03:58;0.52;;;0.52;;
934;SDS011;454;53.254;10.400;2023-02-28T15:06:28;0.20;;;0.20;;
934;SDS011;454;53.254;10.400;2023-02-28T15:09:13;0.65;;;0.65;;
934;SDS011;454;53.254;10.400;2023-02-28T15:11:41;0.20;;;0.20;;
934;SDS011;454;53.254;10.400;2023-02-28T15:14:17;0.17;;;0.17;;
934;SDS011;454;53.254;10.400;2023-02-28T15:16:46;0.75;;;0.75;;
934;SDS011;454;53.254;10.400;2023-02-28T15:19:18;2.47;;;1.85;;
934;SDS011;454;53.254;10.400;2023-02-28T15:21:48;0.70;;;0.70;;
934;SDS011;454;53.254;10.400;2023-02-28T15:24:19;4.10;;;1.27;;
934;SDS011;454;53.254;10.400;2023-02-28T15:26:53;0.57;;;0.57;;
934;SDS011;454;53.254;10.400;2023-02-28T15:29:23;1.00;;;1.00;;
934;SDS011;454;53.254;10.400;2023-02-28T15:31:55;1.48;;;1.10;;
934;SDS011;454;53.254;10.400;2023-02-28T15:34:27;2.70;;;1.70;;
934;SDS011;454;53.254;10.400;2023-02-28T15:36:59;0.60;;;0.60;;
934;SDS011;454;53.254;10.400;2023-02-28T15:39:28;1.50;;;0.68;;
934;SDS011;454;53.254;10.400;2023-02-28T15:42:09;0.30;;;0.30;;
934;SDS011;454;53.254;10.400;2023-02-28T15:44:37;0.73;;;0.65;;
934;SDS011;454;53.254;10.400;2023-02-28T15:47:04;0.73;;;0.73;;
934;SDS011;454;53.254;10.400;2023-02-28T15:49:36;0.20;;;0.20;;
934;SDS011;454;53.254;10.400;2023-02-28T15:52:06;0.35;;;0.35;;
934;SDS011;454;53.254;10.400;2023-02-28T15:54:40;0.20;;;0.20;;
934;SDS011;454;53.254;10.400;2023-02-28T15:57:11;1.60;;;0.30;;
934;SDS011;454;53.254;10.400;2023-02-28T15:59:44;1.20;;;1.10;;
934;SDS011;454;53.254;10.400;2023-02-28T16:02:17;0.75;;;0.75;;
934;SDS011;454;53.254;10.400;2023-02-28T16:07:53;0.30;;;0.30;;
934;SDS011;454;53.254;10.400;2023-02-28T16:10:22;0.85;;;0.55;;
934;SDS011;454;53.254;10.400;2023-02-28T16:12:52;1.30;;;0.50;;
934;SDS011;454;53.254;10.400;2023-02-28T16:15:20;0.57;;;0.57;;
934;SDS011;454;53.254;10.400;2023-02-28T16:17:49;0.30;;;0.30;;
934;SDS011;454;53.254;10.400;2023-02-28T16:20:17;0.80;;;0.75;;
934;SDS011;454;53.254;10.400;2023-02-28T16:22:45;0.30;;;0.30;;
934;SDS011;454;53.254;10.400;2023-02-28T16:25:12;0.75;;;0.57;;
934;SDS011;454;53.254;10.400;2023-02-28T16:27:41;0.40;;;0.40;;
934;SDS011;454;53.254;10.400;2023-02-28T16:30:15;0.77;;;0.77;;
934;SDS011;454;53.254;10.400;2023-02-28T16:32:45;0.30;;;0.30;;
934;SDS011;454;53.254;10.400;2023-02-28T16:35:12;0.57;;;0.57;;
934;SDS011;454;53.254;10.400;2023-02-28T16:37:39;0.60;;;0.60;;
934;SDS011;454;53.254;10.400;2023-02-28T16:40:06;0.40;;;0.40;;
934;SDS011;454;53.254;10.400;2023-02-28T16:42:39;0.20;;;0.20;;
934;SDS011;454;53.254;10.400;2023-02-28T16:45:14;0.57;;;0.57;;
934;SDS011;454;53.254;10.400;2023-02-28T16:47:43;0.50;;;0.50;;
934;SDS011;454;53.254;10.400;2023-02-28T16:50:12;0.45;;;0.45;;
934;SDS011;454;53.254;10.400;2023-02-28T16:52:41;0.50;;;0.50;;
934;SDS011;454;53.254;10.400;2023-02-28T16:55:08;1.00;;;0.47;;
934;SDS011;454;53.254;10.400;2023-02-28T16:57:35;0.68;;;0.68;;
934;SDS011;454;53.254;10.400;2023-02-28T17:00:04;1.10;;;1.10;;
934;SDS011;454;53.254;10.400;2023-02-28T17:02:33;0.80;;;0.75;;
934;SDS011;454;53.254;10.400;2023-02-28T17:05:00;0.35;;;0.35;;
934;SDS011;454;53.254;10.400;2023-02-28T17:07:27;0.38;;;0.38;;
934;SDS011;454;53.254;10.400;2023-02-28T17:09:54;0.52;;;0.40;;
934;SDS011;454;53.254;10.400;2023-02-28T17:12:20;0.20;;;0.20;;
934;SDS011;454;53.254;10.400;2023-02-28T17:14:47;0.35;;;0.35;;
934;SDS011;454;53.254;10.400;2023-02-28T17:17:17;1.27;;;0.90;;
934;SDS011;454;53.254;10.400;2023-02-28T17:19:46;0.75;;;0.75;;
934;SDS011;454;53.254;10.400;2023-02-28T17:22:13;0.57;;;0.57;;
934;SDS011;454;53.254;10.400;2023-02-28T17:24:40;2.90;;;1.73;;
934;SDS011;454;53.254;10.400;2023-02-28T17:27:08;1.48;;;1.45;;
934;SDS011;454;53.254;10.400;2023-02-28T17:29:37;0.95;;;0.95;;
934;SDS011;454;53.254;10.400;2023-02-28T17:32:04;1.30;;;1.30;;
934;SDS011;454;53.254;10.400;2023-02-28T17:34:32;2.58;;;0.85;;
934;SDS011;454;53.254;10.400;2023-02-28T17:36:59;1.20;;;1.20;;
934;SDS011;454;53.254;10.400;2023-02-28T17:39:26;3.47;;;3.20;;
934;SDS011;454;53.254;10.400;2023-02-28T17:41:53;1.75;;;1.52;;
934;SDS011;454;53.254;10.400;2023-02-28T17:44:21;2.33;;;1.98;;
934;SDS011;454;53.254;10.400;2023-02-28T17:46:50;1.90;;;1.75;;
934;SDS011;454;53.254;10.400;2023-02-28T17:49:17;2.35;;;1.65;;
934;SDS011;454;53.254;10.400;2023-02-28T17:51:45;3.70;;;2.10;;
934;SDS011;454;53.254;10.400;2023-02-28T17:54:12;1.48;;;1.48;;
934;SDS011;454;53.254;10.400;2023-02-28T17:56:39;1.23;;;1.13;;
934;SDS011;454;53.254;10.400;2023-02-28T17:59:08;1.73;;;1.60;;
934;SDS011;454;53.254;10.400;2023-02-28T18:01:36;1.13;;;1.02;;
934;SDS011;454;53.254;10.400;2023-02-28T18:04:03;1.75;;;1.02;;
934;SDS011;454;53.254;10.400;2023-02-28T18:06:30;1.75;;;1.75;;
934;SDS011;454;53.254;10.400;2023-02-28T18:09:02;5.20;;;3.67;;
934;SDS011;454;53.254;10.400;2023-02-28T18:11:29;4.38;;;2.65;;
934;SDS011;454;53.254;10.400;2023-02-28T18:14:06;3.88;;;3.60;;
934;SDS011;454;53.254;10.400;2023-02-28T18:16:34;2.90;;;2.67;;
934;SDS011;454;53.254;10.400;2023-02-28T18:19:01;2.55;;;2.35;;
934;SDS011;454;53.254;10.400;2023-02-28T18:21:28;1.27;;;1.23;;
934;SDS011;454;53.254;10.400;2023-02-28T18:23:54;1.85;;;1.75;;
934;SDS011;454;53.254;10.400;2023-02-28T18:26:24;1.25;;;1.25;;
934;SDS011;454;53.254;10.400;2023-02-28T18:28:50;2.50;;;1.27;;
934;SDS011;454;53.254;10.400;2023-02-28T18:31:18;1.45;;;1.45;;
934;SDS011;454;53.254;10.400;2023-02-28T18:33:47;1.10;;;1.05;;
934;SDS011;454;53.254;10.400;2023-02-28T18:36:15;0.50;;;0.50;;
934;SDS011;454;53.254;10.400;2023-02-28T18:38:42;1.45;;;1.35;;
934;SDS011;454;53.254;10.400;2023-02-28T18:41:10;2.28;;;1.67;;
934;SDS011;454;53.254;10.400;2023-02-28T18:43:38;4.30;;;2.97;;
934;SDS011;454;53.254;10.400;2023-02-28T18:46:05;0.70;;;0.70;;
934;SDS011;454;53.254;10.400;2023-02-28T18:48:33;7.53;;;2.25;;
934;SDS011;454;53.254;10.400;2023-02-28T18:51:04;3.17;;;2.92;;
934;SDS011;454;53.254;10.400;2023-02-28T18:53:32;1.75;;;1.65;;
934;SDS011;454;53.254;10.400;2023-02-28T18:56:00;1.95;;;1.95;;
934;SDS011;454;53.254;10.400;2023-02-28T18:58:27;4.68;;;2.55;;
934;SDS011;454;53.254;10.400;2023-02-28T19:00:55;3.50;;;3.25;;
934;SDS011;454;53.254;10.400;2023-02-28T19:03:21;2.35;;;2.33;;
934;SDS011;454;53.254;10.400;2023-02-28T19:05:48;1.80;;;1.58;;
934;SDS011;454;53.254;10.400;2023-02-28T19:08:18;3.22;;;3.13;;
934;SDS011;454;53.254;10.400;2023-02-28T19:10:45;2.95;;;1.58;;
934;SDS011;454;53.254;10.400;2023-02-28T19:13:12;5.45;;;1.40;;
934;SDS011;454;53.254;10.400;2023-02-28T19:15:39;2.38;;;2.10;;
934;SDS011;454;53.254;10.400;2023-02-28T19:18:07;3.97;;;1.50;;
934;SDS011;454;53.254;10.400;2023-02-28T19:20:34;3.25;;;2.22;;
934;SDS011;454;53.254;10.400;2023-02-28T19:23:01;5.40;;;4.13;;
934;SDS011;454;53.254;10.400;2023-02-28T19:25:28;17.75;;;3.53;;
934;SDS011;454;53.254;10.400;2023-02-28T19:27:54;4.65;;;4.18;;
934;SDS011;454;53.254;10.400;2023-02-28T19:30:21;2.05;;;1.95;;
934;SDS011;454;53.254;10.400;2023-02-28T19:32:50;2.03;;;1.95;;
934;SDS011;454;53.254;10.400;2023-02-28T19:35:18;10.65;;;3.00;;
934;SDS011;454;53.254;10.400;2023-02-28T19:37:44;3.45;;;2.90;;
934;SDS011;454;53.254;10.400;2023-02-28T19:40:11;3.67;;;3.38;;
934;SDS011;454;53.254;10.400;2023-02-28T19:42:38;8.63;;;2.92;;
934;SDS011;454;53.254;10.400;2023-02-28T19:45:06;5.65;;;3.55;;
934;SDS011;454;53.254;10.400;2023-02-28T19:47:34;4.40;;;3.00;;
934;SDS011;454;53.254;10.400;2023-02-28T19:50:02;5.13;;;4.57;;
934;SDS011;454;53.254;10.400;2023-02-28T19:52:31;3.78;;;3.47;;
934;SDS011;454;53.254;10.400;2023-02-28T19:54:58;3.10;;;2.97;;
934;SDS011;454;53.254;10.400;2023-02-28T19:57:25;1.42;;;1.42;;
934;SDS011;454;53.254;10.400;2023-02-28T19:59:52;4.28;;;3.92;;
934;SDS011;454;53.254;10.400;2023-02-28T20:02:19;2.65;;;2.33;;
934;SDS011;454;53.254;10.400;2023-02-28T20:04:47;2.83;;;2.60;;
934;SDS011;454;53.254;10.400;2023-02-28T20:07:14;11.60;;;5.50;;
934;SDS011;454;53.254;10.400;2023-02-28T20:09:43;8.90;;;5.30;;
934;SDS011;454;53.254;10.400;2023-02-28T20:12:09;3.28;;;3.10;;
934;SDS011;454;53.254;10.400;2023-02-28T20:14:36;3.80;;;3.45;;
934;SDS011;454;53.254;10.400;2023-02-28T20:17:03;6.00;;;5.00;;
934;SDS011;454;53.254;10.400;2023-02-28T20:19:30;2.45;;;2.30;;
934;SDS011;454;53.254;10.400;2023-02-28T20:21:56;3.45;;;3.25;;
934;SDS011;454;53.254;10.400;2023-02-28T20:24:25;4.57;;;3.05;;
934;SDS011;454;53.254;10.400;2023-02-28T20:26:53;1.58;;;1.58;;
934;SDS011;454;53.254;10.400;2023-02-28T20:29:21;3.30;;;3.20;;
934;SDS011;454;53.254;10.400;2023-02-28T20:31:48;3.00;;;2.80;;
934;SDS011;454;53.254;10.400;2023-02-28T20:36:43;2.40;;;1.80;;
934;SDS011;454;53.254;10.400;2023-02-28T20:39:10;2.50;;;2.30;;
934;SDS011;454;53.254;10.400;2023-02-28T20:41:37;2.00;;;1.90;;
934;SDS011;454;53.254;10.400;2023-02-28T20:44:05;3.78;;;3.25;;
934;SDS011;454;53.254;10.400;2023-02-28T20:46:32;2.88;;;2.15;;
934;SDS011;454;53.254;10.400;2023-02-28T20:48:59;2.05;;;2.05;;
934;SDS011;454;53.254;10.400;2023-02-28T20:51:26;3.53;;;3.45;;
934;SDS011;454;53.254;10.400;2023-02-28T20:53:53;1.45;;;1.45;;
934;SDS011;454;53.254;10.400;2023-02-28T20:56:20;3.13;;;3.03;;
934;SDS011;454;53.254;10.400;2023-02-28T20:58:47;1.52;;;1.42;;
934;SDS011;454;53.254;10.400;2023-02-28T21:01:19;0.75;;;0.75;;
934;SDS011;454;53.254;10.400;2023-02-28T21:03:50;0.52;;;0.52;;
934;SDS011;454;53.254;10.400;2023-02-28T21:06:19;3.83;;;1.52;;
934;SDS011;454;53.254;10.400;2023-02-28T21:08:47;0.63;;;0.63;;
934;SDS011;454;53.254;10.400;2023-02-28T21:11:15;0.47;;;0.47;;
934;SDS011;454;53.254;10.400;2023-02-28T21:13:44;0.50;;;0.50;;
934;SDS011;454;53.254;10.400;2023-02-28T21:16:12;1.20;;;1.17;;
934;SDS011;454;53.254;10.400;2023-02-28T21:18:41;1.35;;;0.95;;
934;SDS011;454;53.254;10.400;2023-02-28T21:21:10;0.65;;;0.65;;